createdAt,value
2018-07-24T00:00:48.368Z,29.20
2018-07-24T00:03:18.866Z,29.20
2018-07-24T00:05:48.465Z,28.10
2018-07-24T00:08:18.078Z,29.30
2018-07-24T00:10:47.849Z,29.10
2018-07-24T00:13:17.391Z,28.50
2018-07-24T00:15:46.792Z,28.40
2018-07-24T00:18:16.513Z,29.20
2018-07-24T00:20:46.204Z,29.00
2018-07-24T00:23:15.833Z,29.60
2018-07-24T00:25:45.413Z,28.80
2018-07-24T00:28:14.910Z,29.30
2018-07-24T00:30:45.232Z,29.70
2018-07-24T00:33:14.890Z,29.20
2018-07-24T00:35:44.437Z,30.00
2018-07-24T00:38:14.601Z,29.70
2018-07-24T00:40:44.239Z,29.70
2018-07-24T00:43:14.518Z,29.70
2018-07-24T00:45:43.992Z,29.70
2018-07-24T00:48:13.545Z,30.00
2018-07-24T00:50:43.505Z,29.60
2018-07-24T00:53:13.376Z,29.50
2018-07-24T00:55:42.956Z,29.50
2018-07-24T00:58:13.278Z,28.80
2018-07-24T01:00:44.118Z,29.50
2018-07-24T01:03:13.837Z,29.60
2018-07-24T01:05:43.296Z,28.20
2018-07-24T01:08:12.719Z,28.20
2018-07-24T01:10:42.051Z,28.80
2018-07-24T01:13:11.277Z,29.00
2018-07-24T01:15:40.723Z,29.70
2018-07-24T01:18:10.216Z,29.70
2018-07-24T01:20:40.079Z,30.00
2018-07-24T01:23:09.568Z,30.40
2018-07-24T01:25:39.475Z,30.80
2018-07-24T01:28:09.152Z,31.30
2018-07-24T01:30:39.349Z,32.20
2018-07-24T01:33:08.904Z,32.80
2018-07-24T01:35:39.339Z,34.10
2018-07-24T01:38:09.059Z,34.10
2018-07-24T01:40:38.959Z,34.50
2018-07-24T01:43:08.575Z,34.50
2018-07-24T01:45:38.883Z,35.60
2018-07-24T01:48:09.196Z,33.20
2018-07-24T01:50:38.556Z,33.10
2018-07-24T01:53:08.318Z,33.10
2018-07-24T01:55:38.977Z,32.80
2018-07-24T01:58:08.466Z,32.70
2018-07-24T02:00:38.059Z,32.30
2018-07-24T02:03:09.227Z,33.00
2018-07-24T02:05:38.657Z,33.00
2018-07-24T02:08:08.720Z,33.30
2018-07-24T02:10:39.146Z,33.30
2018-07-24T02:13:08.748Z,33.30
2018-07-24T02:15:38.267Z,34.00
2018-07-24T02:18:08.355Z,36.40
2018-07-24T02:20:37.680Z,37.50
2018-07-24T02:23:08.093Z,37.90
2018-07-24T02:25:37.584Z,37.80
2018-07-24T02:28:07.821Z,39.10
2018-07-24T02:30:37.397Z,39.00
2018-07-24T02:33:08.486Z,39.40
2018-07-24T02:35:40.533Z,40.00
2018-07-24T02:38:10.223Z,40.00
2018-07-24T02:40:39.552Z,40.00
2018-07-24T02:43:10.810Z,41.30
2018-07-24T02:45:40.547Z,41.30
2018-07-24T02:48:10.601Z,41.50
2018-07-24T02:50:40.368Z,42.10
2018-07-24T02:53:09.872Z,42.40
2018-07-24T02:55:39.465Z,42.90
2018-07-24T02:58:09.195Z,43.50
2018-07-24T03:00:39.761Z,43.50
2018-07-24T03:03:09.200Z,44.00
2018-07-24T03:05:38.748Z,44.40
2018-07-24T03:08:08.561Z,44.50
2018-07-24T03:10:39.027Z,45.00
2018-07-24T03:13:08.878Z,45.10
2018-07-24T03:15:39.367Z,45.60
2018-07-24T03:18:09.326Z,46.00
2018-07-24T03:20:38.961Z,45.90
2018-07-24T03:23:09.029Z,46.10
2018-07-24T03:25:39.632Z,46.20
2018-07-24T03:28:09.247Z,46.40
2018-07-24T03:30:38.938Z,46.90
2018-07-24T03:33:08.677Z,46.90
2018-07-24T03:35:39.234Z,47.30
2018-07-24T03:38:10.996Z,47.10
2018-07-24T03:40:41.104Z,47.50
2018-07-24T03:43:12.906Z,48.10
2018-07-24T03:45:42.345Z,48.20
2018-07-24T03:48:12.068Z,47.80
2018-07-24T03:50:42.274Z,48.10
2018-07-24T03:53:11.873Z,48.10
2018-07-24T03:55:41.293Z,48.00
2018-07-24T03:58:11.101Z,48.40
2018-07-24T04:00:41.689Z,48.40
2018-07-24T04:03:11.964Z,48.30
2018-07-24T04:05:42.664Z,48.10
2018-07-24T04:08:13.248Z,47.90
2018-07-24T04:10:42.867Z,48.30
2018-07-24T04:13:12.367Z,48.30
2018-07-24T04:15:41.825Z,48.50
2018-07-24T04:18:12.487Z,48.70
2018-07-24T04:20:42.286Z,48.70
2018-07-24T04:23:11.997Z,48.00
2018-07-24T04:25:42.176Z,47.70
2018-07-24T04:28:12.968Z,47.70
2018-07-24T04:30:42.621Z,47.50
2018-07-24T04:33:12.660Z,47.50
2018-07-24T04:35:42.108Z,47.30
2018-07-24T04:38:12.753Z,47.70
2018-07-24T04:40:42.247Z,47.70
2018-07-24T04:43:13.845Z,48.00
2018-07-24T04:45:43.672Z,48.30
2018-07-24T04:48:13.546Z,48.50
2018-07-24T04:50:42.764Z,48.70
2018-07-24T04:53:12.507Z,49.00
2018-07-24T04:55:42.109Z,49.50
2018-07-24T04:58:11.607Z,49.90
2018-07-24T05:00:41.204Z,50.20
2018-07-24T05:03:11.538Z,50.30
2018-07-24T05:05:40.827Z,50.50
2018-07-24T05:08:10.080Z,50.30
2018-07-24T05:10:40.023Z,50.60
2018-07-24T05:13:10.727Z,50.90
2018-07-24T05:15:40.131Z,50.90
2018-07-24T05:18:09.819Z,50.50
2018-07-24T05:20:39.855Z,50.10
2018-07-24T05:23:09.131Z,49.50
2018-07-24T05:25:39.992Z,49.60
2018-07-24T05:28:09.432Z,49.60
2018-07-24T05:30:41.243Z,49.10
2018-07-24T05:33:11.555Z,48.20
2018-07-24T05:35:41.232Z,47.80
2018-07-24T05:38:10.673Z,48.30
2018-07-24T05:40:40.275Z,47.80
2018-07-24T05:43:09.672Z,48.10
2018-07-24T05:45:40.812Z,47.90
2018-07-24T05:48:11.376Z,47.60
2018-07-24T05:50:40.916Z,47.50
2018-07-24T05:53:10.463Z,47.50
2018-07-24T05:55:41.144Z,47.90
2018-07-24T05:58:16.689Z,47.60
2018-07-24T06:01:01.443Z,47.40
2018-07-24T06:03:32.106Z,52.80
2018-07-24T06:06:02.839Z,52.70
2018-07-24T06:08:32.467Z,51.30
2018-07-24T06:11:02.042Z,51.20
2018-07-24T06:13:31.605Z,51.60
2018-07-24T06:16:03.054Z,50.60
2018-07-24T06:18:32.662Z,50.90
2018-07-24T06:21:02.208Z,51.00
2018-07-24T06:23:31.924Z,51.50
2018-07-24T06:26:01.550Z,52.10
2018-07-24T06:28:31.367Z,52.70
2018-07-24T06:31:01.089Z,53.40
2018-07-24T06:33:31.177Z,54.90
2018-07-24T06:36:00.928Z,54.80
2018-07-24T06:38:31.074Z,55.10
2018-07-24T06:41:00.540Z,55.10
2018-07-24T06:43:30.957Z,55.40
2018-07-24T06:46:00.452Z,55.40
2018-07-24T06:48:30.363Z,55.70
2018-07-24T06:51:00.031Z,56.00
2018-07-24T06:53:29.687Z,56.40
2018-07-24T06:55:59.107Z,56.60
2018-07-24T06:58:29.717Z,57.20
2018-07-24T07:00:59.242Z,57.40
2018-07-24T07:03:29.066Z,57.50
2018-07-24T07:05:58.516Z,58.00
2018-07-24T07:08:29.453Z,57.90
2018-07-24T07:10:59.056Z,58.20
2018-07-24T07:13:28.623Z,58.70
2018-07-24T07:15:58.093Z,58.50
2018-07-24T07:18:28.579Z,58.60
2018-07-24T07:20:58.058Z,58.60
2018-07-24T07:23:30.577Z,58.70
2018-07-24T07:26:00.638Z,58.90
2018-07-24T07:28:30.322Z,58.60
2018-07-24T07:31:01.508Z,57.50
2018-07-24T07:33:30.908Z,56.80
2018-07-24T07:36:00.700Z,57.10
2018-07-24T07:38:30.153Z,57.20
2018-07-24T07:40:59.592Z,57.30
2018-07-24T07:43:28.952Z,55.80
2018-07-24T07:45:58.440Z,55.90
2018-07-24T07:48:28.837Z,56.20
2018-07-24T07:50:58.580Z,56.20
2018-07-24T07:53:28.125Z,56.60
2018-07-24T07:55:57.177Z,56.60
2018-07-24T07:58:26.726Z,56.20
2018-07-24T08:00:56.536Z,56.90
2018-07-24T08:03:26.270Z,56.80
2018-07-24T08:05:55.864Z,57.60
2018-07-24T08:08:25.774Z,57.90
2018-07-24T08:10:55.491Z,58.50
2018-07-24T08:13:25.133Z,58.40
2018-07-24T08:15:55.566Z,58.70
2018-07-24T08:18:25.928Z,58.60
2018-07-24T08:20:55.312Z,58.50
2018-07-24T08:23:25.002Z,58.70
2018-07-24T08:25:54.639Z,59.10
2018-07-24T08:28:24.495Z,59.50
2018-07-24T08:30:53.876Z,59.20
2018-07-24T08:33:23.474Z,59.00
2018-07-24T08:35:52.868Z,57.80
2018-07-24T08:38:22.431Z,57.80
2018-07-24T08:40:52.539Z,58.40
2018-07-24T08:43:22.260Z,58.40
2018-07-24T08:45:52.380Z,58.90
2018-07-24T08:48:22.024Z,58.80
2018-07-24T08:50:51.621Z,58.00
2018-07-24T08:53:21.244Z,58.00
2018-07-24T08:55:50.715Z,57.70
2018-07-24T08:58:21.572Z,58.10
2018-07-24T09:00:51.080Z,58.20
2018-07-24T09:03:21.780Z,58.10
2018-07-24T09:05:51.358Z,58.30
2018-07-24T09:08:21.033Z,58.40
2018-07-24T09:10:50.593Z,58.30
2018-07-24T09:13:20.528Z,58.70
2018-07-24T09:15:51.501Z,58.90
2018-07-24T09:18:21.932Z,59.00
2018-07-24T09:20:55.922Z,59.00
2018-07-24T09:23:25.728Z,60.10
2018-07-24T09:25:55.159Z,60.90
2018-07-24T09:28:24.695Z,60.80
2018-07-24T09:30:54.106Z,59.90
2018-07-24T09:33:23.974Z,60.10
2018-07-24T09:35:54.115Z,60.10
2018-07-24T09:38:23.661Z,60.70
2018-07-24T09:40:53.090Z,60.30
2018-07-24T09:43:22.758Z,60.90
2018-07-24T09:45:52.571Z,61.00
2018-07-24T09:48:21.894Z,61.60
2018-07-24T09:50:52.568Z,61.30
2018-07-24T09:53:22.490Z,61.30
2018-07-24T09:55:51.942Z,60.40
2018-07-24T09:58:21.428Z,62.60
2018-07-24T10:00:50.998Z,60.60
2018-07-24T10:03:20.818Z,60.50
2018-07-24T10:05:50.067Z,60.00
2018-07-24T10:08:20.606Z,59.80
2018-07-24T10:10:50.434Z,59.80
2018-07-24T10:13:20.101Z,59.40
2018-07-24T10:15:49.955Z,59.90
2018-07-24T10:18:19.366Z,59.60
2018-07-24T10:20:48.499Z,59.40
2018-07-24T10:23:19.105Z,58.70
2018-07-24T10:25:48.580Z,58.50
2018-07-24T10:28:18.494Z,60.70
2018-07-24T10:30:48.176Z,62.50
2018-07-24T10:33:19.750Z,61.40
2018-07-24T10:35:50.188Z,62.20
2018-07-24T10:38:21.233Z,62.30
2018-07-24T10:40:50.939Z,62.30
2018-07-24T10:43:20.560Z,62.70
2018-07-24T10:45:51.280Z,62.60
2018-07-24T10:48:21.130Z,62.90
2018-07-24T10:50:52.391Z,63.50
2018-07-24T10:53:21.775Z,63.20
2018-07-24T10:55:51.148Z,63.00
2018-07-24T10:58:20.673Z,63.50
2018-07-24T11:00:50.047Z,64.20
2018-07-24T11:03:19.753Z,63.50
2018-07-24T11:05:49.129Z,64.10
2018-07-24T11:08:18.665Z,64.80
2018-07-24T11:10:48.674Z,65.10
2018-07-24T11:13:18.308Z,65.00
2018-07-24T11:15:47.915Z,65.10
2018-07-24T11:18:17.537Z,65.10
2018-07-24T11:20:47.195Z,64.90
2018-07-24T11:23:17.684Z,66.00
2018-07-24T11:25:47.536Z,66.00
2018-07-24T11:28:17.006Z,65.50
2018-07-24T11:30:47.520Z,65.70
2018-07-24T11:33:16.924Z,65.60
2018-07-24T11:35:46.973Z,65.90
2018-07-24T11:38:16.774Z,65.90
2018-07-24T11:40:47.993Z,66.30
2018-07-24T11:43:17.607Z,66.00
2018-07-24T11:45:47.156Z,66.20
2018-07-24T11:48:16.816Z,66.10
2018-07-24T11:50:46.659Z,66.40
2018-07-24T11:53:16.092Z,66.90
2018-07-24T11:55:46.400Z,67.50
2018-07-24T11:58:16.148Z,67.50
2018-07-24T12:00:45.444Z,66.40
2018-07-24T12:03:14.992Z,66.90
2018-07-24T12:05:45.119Z,66.80
2018-07-24T12:08:15.710Z,67.20
2018-07-24T12:10:45.646Z,67.30
2018-07-24T12:13:14.996Z,67.00
2018-07-24T12:15:44.319Z,67.40
2018-07-24T12:18:14.880Z,67.70
2018-07-24T12:20:44.166Z,67.80
2018-07-24T12:23:14.001Z,67.90
2018-07-24T12:25:43.726Z,67.80
2018-07-24T12:28:13.972Z,67.90
2018-07-24T12:30:44.443Z,67.70
2018-07-24T12:33:13.923Z,67.70
2018-07-24T12:35:43.556Z,67.30
2018-07-24T12:38:15.036Z,67.00
2018-07-24T12:40:44.631Z,67.50
2018-07-24T12:43:14.406Z,66.70
2018-07-24T12:45:44.929Z,67.00
2018-07-24T12:48:15.447Z,67.70
2018-07-24T12:50:47.196Z,68.60
2018-07-24T12:53:16.778Z,68.60
2018-07-24T12:55:47.407Z,69.10
2018-07-24T12:58:17.053Z,69.00
2018-07-24T13:00:47.739Z,68.10
2018-07-24T13:03:17.332Z,67.90
2018-07-24T13:05:46.868Z,68.10
2018-07-24T13:08:16.650Z,68.20
2018-07-24T13:10:46.243Z,68.40
2018-07-24T13:13:16.262Z,69.00
2018-07-24T13:15:45.586Z,69.00
2018-07-24T13:18:15.463Z,69.20
2018-07-24T13:20:45.355Z,69.10
2018-07-24T13:23:14.921Z,69.20
2018-07-24T13:25:44.267Z,69.60
2018-07-24T13:28:13.649Z,69.10
2018-07-24T13:30:43.453Z,69.10
2018-07-24T13:33:13.079Z,68.80
2018-07-24T13:35:44.460Z,68.80
2018-07-24T13:38:14.054Z,69.50
2018-07-24T13:40:43.582Z,69.10
2018-07-24T13:43:12.952Z,68.70
2018-07-24T13:45:43.780Z,68.50
2018-07-24T13:48:14.778Z,68.20
2018-07-24T13:50:44.876Z,68.10
2018-07-24T13:53:15.539Z,67.90
2018-07-24T13:55:45.294Z,67.60
2018-07-24T13:58:14.730Z,67.60
2018-07-24T14:00:44.218Z,67.40
2018-07-24T14:03:13.796Z,67.30
2018-07-24T14:05:45.112Z,66.80
2018-07-24T14:08:16.914Z,66.70
2018-07-24T14:10:46.585Z,67.00
2018-07-24T14:13:16.754Z,66.60
2018-07-24T14:15:46.616Z,65.90
2018-07-24T14:18:16.182Z,65.80
2018-07-24T14:20:45.849Z,66.00
2018-07-24T14:23:15.381Z,66.60
2018-07-24T14:25:44.643Z,66.50
2018-07-24T14:28:14.622Z,66.20
2018-07-24T14:30:44.396Z,66.20
2018-07-24T14:33:14.665Z,64.70
2018-07-24T14:35:44.937Z,64.70
2018-07-24T14:38:14.889Z,64.00
2018-07-24T14:40:45.099Z,64.80
2018-07-24T14:43:14.751Z,63.90
2018-07-24T14:45:44.350Z,64.20
2018-07-24T14:48:13.949Z,63.70
2018-07-24T14:50:43.444Z,63.10
2018-07-24T14:53:13.215Z,62.20
2018-07-24T14:55:42.918Z,62.20
2018-07-24T14:58:13.228Z,62.70
2018-07-24T15:00:42.740Z,62.70
2018-07-24T15:03:12.515Z,61.40
2018-07-24T15:05:42.020Z,61.40
2018-07-24T15:08:11.296Z,60.80
2018-07-24T15:10:40.900Z,60.70
2018-07-24T15:13:10.299Z,59.20
2018-07-24T15:15:42.752Z,58.60
2018-07-24T15:18:15.502Z,57.80
2018-07-24T15:20:44.931Z,57.50
2018-07-24T15:23:14.657Z,57.80
2018-07-24T15:25:44.159Z,58.00
2018-07-24T15:28:14.754Z,57.80
2018-07-24T15:30:44.173Z,56.70
2018-07-24T15:33:13.663Z,56.20
2018-07-24T15:35:44.139Z,57.20
2018-07-24T15:38:13.645Z,55.70
2018-07-24T15:40:43.179Z,56.20
2018-07-24T15:43:12.864Z,55.40
2018-07-24T15:45:43.366Z,54.00
2018-07-24T15:48:13.601Z,54.30
2018-07-24T15:50:43.817Z,53.60
2018-07-24T15:53:14.637Z,54.10
2018-07-24T15:55:44.062Z,54.00
2018-07-24T15:58:13.733Z,54.30
2018-07-24T16:00:43.943Z,54.00
2018-07-24T16:03:14.528Z,53.90
2018-07-24T16:05:44.131Z,53.80
2018-07-24T16:08:13.407Z,53.60
2018-07-24T16:10:43.128Z,53.60
2018-07-24T16:13:13.353Z,53.80
2018-07-24T16:15:43.104Z,53.70
2018-07-24T16:18:13.390Z,53.60
2018-07-24T16:20:42.724Z,53.80
2018-07-24T16:23:13.116Z,53.40
2018-07-24T16:25:43.891Z,53.20
2018-07-24T16:28:14.227Z,53.00
2018-07-24T16:30:44.205Z,53.20
2018-07-24T16:33:13.897Z,53.30
2018-07-24T16:35:44.497Z,53.30
2018-07-24T16:38:14.074Z,53.30
2018-07-24T16:40:43.693Z,52.50
2018-07-24T16:43:13.242Z,52.80
2018-07-24T16:45:43.721Z,52.20
2018-07-24T16:48:13.396Z,51.70
2018-07-24T16:50:44.781Z,50.40
2018-07-24T16:53:14.336Z,50.40
2018-07-24T16:55:44.269Z,50.50
2018-07-24T16:58:14.092Z,50.40
2018-07-24T17:00:44.808Z,50.40
2018-07-24T17:03:22.323Z,49.70
2018-07-24T17:05:52.310Z,49.60
2018-07-24T17:08:22.661Z,48.90
2018-07-24T17:10:53.064Z,48.90
2018-07-24T17:13:22.321Z,48.60
2018-07-24T17:15:53.285Z,47.90
2018-07-24T17:18:23.801Z,46.00
2018-07-24T17:20:53.401Z,46.00
2018-07-24T17:23:22.874Z,46.00
2018-07-24T17:25:52.358Z,44.80
2018-07-24T17:28:22.206Z,43.90
2018-07-24T17:30:51.645Z,42.00
2018-07-24T17:33:21.452Z,33.60
2018-07-24T17:35:51.688Z,27.50
2018-07-24T17:38:20.934Z,25.30
2018-07-24T17:40:50.752Z,22.30
2018-07-24T17:43:21.218Z,21.20
2018-07-24T17:45:53.010Z,21.20
2018-07-24T17:48:23.366Z,19.00
2018-07-24T17:50:53.542Z,19.00
2018-07-24T17:53:23.316Z,18.20
2018-07-24T17:55:52.965Z,17.20
2018-07-24T17:58:22.653Z,16.30
2018-07-24T18:00:52.582Z,15.70
2018-07-24T18:03:22.697Z,15.40
2018-07-24T18:05:52.114Z,15.30
2018-07-24T18:08:22.409Z,15.00
2018-07-24T18:10:52.755Z,14.20
2018-07-24T18:13:22.664Z,14.20
2018-07-24T18:15:52.291Z,14.40
2018-07-24T18:18:21.756Z,14.40
2018-07-24T18:20:51.162Z,13.80
2018-07-24T18:23:21.124Z,14.70
2018-07-24T18:25:50.893Z,14.30
2018-07-24T18:28:20.303Z,14.10
2018-07-24T18:30:50.772Z,13.50
2018-07-24T18:33:20.402Z,13.40
2018-07-24T18:35:49.850Z,13.20
2018-07-24T18:38:19.637Z,13.30
2018-07-24T18:40:49.405Z,13.30
2018-07-24T18:43:19.102Z,13.40
2018-07-24T18:45:48.690Z,13.50
2018-07-24T18:48:18.355Z,13.20
2018-07-24T18:50:48.127Z,13.70
2018-07-24T18:53:18.514Z,16.50
2018-07-24T18:55:48.126Z,16.40
2018-07-24T18:58:19.117Z,19.80
2018-07-24T19:00:48.684Z,19.70
2018-07-24T19:03:19.118Z,22.90
2018-07-24T19:05:48.699Z,22.40
2018-07-24T19:08:18.234Z,23.60
2018-07-24T19:10:47.926Z,23.90
2018-07-24T19:13:18.079Z,24.50
2018-07-24T19:15:47.865Z,25.00
2018-07-24T19:18:19.453Z,25.70
2018-07-24T19:20:48.849Z,25.60
2018-07-24T19:23:19.105Z,26.20
2018-07-24T19:25:48.755Z,26.20
2018-07-24T19:28:19.089Z,26.40
2018-07-24T19:30:51.082Z,27.30
2018-07-24T19:33:20.566Z,27.30
2018-07-24T19:35:50.026Z,27.50
2018-07-24T19:38:20.448Z,28.20
2018-07-24T19:40:49.874Z,28.20
2018-07-24T19:43:19.372Z,28.80
2018-07-24T19:45:48.818Z,29.10
2018-07-24T19:48:18.155Z,28.90
2018-07-24T19:50:48.104Z,28.60
2018-07-24T19:53:18.956Z,28.50
2018-07-24T19:55:48.565Z,28.80
2018-07-24T19:58:18.144Z,28.90
2018-07-24T20:00:48.066Z,29.00
2018-07-24T20:03:18.793Z,28.90
2018-07-24T20:05:48.196Z,29.40
2018-07-24T20:08:18.895Z,29.40
2018-07-24T20:10:48.612Z,30.00
2018-07-24T20:13:18.206Z,29.60
2018-07-24T20:15:48.195Z,29.80
2018-07-24T20:18:17.661Z,30.10
2018-07-24T20:20:47.015Z,31.20
2018-07-24T20:23:20.735Z,32.00
2018-07-24T20:25:50.140Z,31.40
2018-07-24T20:28:19.589Z,31.70
2018-07-24T20:30:49.161Z,32.20
2018-07-24T20:33:18.809Z,32.60
2018-07-24T20:35:48.227Z,31.80
2018-07-24T20:38:17.420Z,31.80
2018-07-24T20:40:46.945Z,30.70
2018-07-24T20:43:16.715Z,32.40
2018-07-24T20:45:47.448Z,32.60
2018-07-24T20:48:16.993Z,32.90
2018-07-24T20:50:46.506Z,31.60
2018-07-24T20:53:16.053Z,31.10
2018-07-24T20:55:45.882Z,31.30
2018-07-24T20:58:15.480Z,31.70
2018-07-24T21:00:45.062Z,31.60
2018-07-24T21:03:14.698Z,31.80
2018-07-24T21:05:44.261Z,31.80
2018-07-24T21:08:14.348Z,32.30
2018-07-24T21:10:44.872Z,32.40
2018-07-24T21:13:15.150Z,31.10
2018-07-24T21:15:44.404Z,31.10
2018-07-24T21:18:14.004Z,31.90
2018-07-24T21:20:45.149Z,29.40
2018-07-24T21:23:14.551Z,29.30
2018-07-24T21:25:44.058Z,29.90
2018-07-24T21:28:13.522Z,31.00
2018-07-24T21:30:43.307Z,31.10
2018-07-24T21:33:12.696Z,30.50
2018-07-24T21:35:42.440Z,30.90
2018-07-24T21:38:12.007Z,30.50
2018-07-24T21:40:41.611Z,30.70
2018-07-24T21:43:11.381Z,32.50
2018-07-24T21:45:41.110Z,32.70
2018-07-24T21:48:10.610Z,31.10
2018-07-24T21:50:39.972Z,30.70
2018-07-24T21:53:09.556Z,34.30
2018-07-24T21:55:39.371Z,31.90
2018-07-24T21:58:08.832Z,32.30
2018-07-24T22:00:38.494Z,31.40
2018-07-24T22:03:08.420Z,30.50
2018-07-24T22:05:38.343Z,31.90
2018-07-24T22:08:07.869Z,31.70
2018-07-24T22:10:37.292Z,31.90
2018-07-24T22:13:07.915Z,30.60
2018-07-24T22:15:37.619Z,30.60
2018-07-24T22:18:07.436Z,30.00
2018-07-24T22:20:37.570Z,29.80
2018-07-24T22:23:06.849Z,30.30
2018-07-24T22:25:36.357Z,29.80
2018-07-24T22:28:05.716Z,30.00
2018-07-24T22:30:35.137Z,30.50
2018-07-24T22:33:04.898Z,31.20
2018-07-24T22:35:36.931Z,31.30
2018-07-24T22:38:07.498Z,31.40
2018-07-24T22:40:37.591Z,31.30
2018-07-24T22:43:07.956Z,31.10
2018-07-24T22:45:37.490Z,32.00
2018-07-24T22:48:07.076Z,31.30
2018-07-24T22:50:36.743Z,30.60
2018-07-24T22:53:06.843Z,31.10
2018-07-24T22:55:36.157Z,32.20
2018-07-24T22:58:05.716Z,31.60
2018-07-24T23:00:35.146Z,31.20
2018-07-24T23:03:06.153Z,30.70
2018-07-24T23:05:35.549Z,30.70
2018-07-24T23:08:05.310Z,30.60
2018-07-24T23:10:35.725Z,31.70
2018-07-24T23:13:05.253Z,31.70
2018-07-24T23:15:35.086Z,32.50
2018-07-24T23:18:04.488Z,32.90
2018-07-24T23:20:33.871Z,32.10
2018-07-24T23:23:03.503Z,32.80
2018-07-24T23:25:33.084Z,33.00
2018-07-24T23:28:02.683Z,33.30
2018-07-24T23:30:37.176Z,33.80
2018-07-24T23:33:08.362Z,32.80
2018-07-24T23:35:37.992Z,32.80
2018-07-24T23:38:07.700Z,32.30
2018-07-24T23:40:36.984Z,32.40
2018-07-24T23:43:07.240Z,31.70
2018-07-24T23:45:36.743Z,31.60
2018-07-24T23:48:06.352Z,32.20
2018-07-24T23:50:35.828Z,31.00
2018-07-24T23:53:05.894Z,31.00
2018-07-24T23:55:35.468Z,32.00
2018-07-24T23:58:05.115Z,30.00
